Time;durP1;ratioP1;P1;durP2;ratioP2;P2;SDS_P1;SDS_P2;PMS_P1;PMS_P2;Temp;Humidity;BMP_temperature;BMP_pressure;BME280_temperature;BME280_humidity;BME280_pressure;Samples;Min_cycle;Max_cycle;Signal;HPM_P1;HPM_P2
2021/10/31 00:01:28;;;;;;;11.02;9.18;;;11.70;99.90;;;;;;5040970;28;20057;-90
2021/10/31 00:03:56;;;;;;;10.20;9.20;;;11.80;99.90;;;;;;5017684;28;20428;-89
2021/10/31 00:06:22;;;;;;;11.30;9.45;;;11.80;99.90;;;;;;5017150;28;20053;-89
2021/10/31 00:08:49;;;;;;;9.98;8.57;;;11.80;99.90;;;;;;5017708;28;20049;-86
2021/10/31 00:11:17;;;;;;;10.63;8.63;;;11.90;99.90;;;;;;5030110;28;20053;-88
2021/10/31 00:13:45;;;;;;;11.32;8.52;;;11.90;99.90;;;;;;5025310;28;20107;-89
2021/10/31 00:16:12;;;;;;;12.15;9.65;;;12.00;99.90;;;;;;5034320;28;20494;-87
2021/10/31 00:18:39;;;;;;;11.98;9.98;;;12.00;99.90;;;;;;5017096;28;20111;-87
2021/10/31 00:21:06;;;;;;;12.07;9.18;;;12.00;99.90;;;;;;5034632;28;20493;-87
2021/10/31 00:23:33;;;;;;;12.82;9.70;;;12.00;99.90;;;;;;5034338;28;20053;-91
2021/10/31 00:26:00;;;;;;;11.65;9.38;;;12.10;99.90;;;;;;5016596;28;20111;-87
2021/10/31 00:28:27;;;;;;;11.45;9.75;;;12.10;99.90;;;;;;5034382;28;20045;-91
2021/10/31 00:30:54;;;;;;;12.27;9.70;;;12.10;99.90;;;;;;5017000;28;20045;-89
2021/10/31 00:33:21;;;;;;;12.13;9.52;;;12.10;99.90;;;;;;5017107;28;20497;-89
2021/10/31 00:35:48;;;;;;;14.38;9.18;;;12.10;99.90;;;;;;5016703;28;20045;-87
2021/10/31 00:38:14;;;;;;;11.77;9.07;;;12.10;99.90;;;;;;5034310;28;20059;-87
2021/10/31 00:40:43;;;;;;;11.23;8.68;;;12.20;99.90;;;;;;5033648;28;20063;-87
2021/10/31 00:43:10;;;;;;;13.18;9.35;;;12.20;99.90;;;;;;5016952;28;20055;-89
2021/10/31 00:45:41;;;;;;;10.77;9.07;;;12.20;99.90;;;;;;5017056;28;20095;-87
2021/10/31 00:48:09;;;;;;;9.30;8.27;;;12.30;99.90;;;;;;5034026;28;20049;-87
2021/10/31 00:50:37;;;;;;;11.73;9.50;;;12.20;99.90;;;;;;5016607;28;20045;-87
2021/10/31 00:53:04;;;;;;;10.88;9.77;;;12.10;99.90;;;;;;5034064;28;20132;-87
2021/10/31 00:55:31;;;;;;;11.63;9.82;;;12.00;99.90;;;;;;5033607;28;20482;-86
2021/10/31 00:57:59;;;;;;;12.45;9.45;;;12.00;99.90;;;;;;5016304;28;20072;-86
2021/10/31 01:00:26;;;;;;;11.73;9.48;;;11.80;99.90;;;;;;5016691;28;20052;-89
2021/10/31 01:02:53;;;;;;;10.55;8.85;;;11.90;99.90;;;;;;5033830;28;20089;-87
2021/10/31 01:05:25;;;;;;;10.98;9.35;;;11.90;99.90;;;;;;5016422;28;20132;-87
2021/10/31 01:08:18;;;;;;;12.07;10.45;;;11.90;99.90;;;;;;5016466;28;20049;-88
2021/10/31 01:11:07;;;;;;;10.07;8.98;;;11.90;99.90;;;;;;5012660;28;20107;-87
2021/10/31 01:13:46;;;;;;;15.85;10.43;;;11.70;99.90;;;;;;5013841;28;20060;-87
2021/10/31 01:16:24;;;;;;;13.00;10.90;;;11.70;99.90;;;;;;5012862;28;20052;-86
2021/10/31 01:19:23;;;;;;;12.10;10.25;;;11.70;99.90;;;;;;5012796;28;20058;-87
2021/10/31 01:22:09;;;;;;;11.63;10.32;;;11.60;99.90;;;;;;4980451;28;20060;-89
2021/10/31 01:24:51;;;;;;;15.95;9.95;;;11.70;99.90;;;;;;5012665;28;20140;-87
2021/10/31 01:27:45;;;;;;;12.35;9.88;;;11.70;99.90;;;;;;5017490;28;20048;-89
2021/10/31 01:30:29;;;;;;;11.75;10.15;;;11.80;99.90;;;;;;5031145;28;20092;-90
2021/10/31 01:33:05;;;;;;;11.38;10.02;;;11.80;99.90;;;;;;5014707;28;20104;-89
2021/10/31 01:35:39;;;;;;;12.25;10.57;;;11.90;99.90;;;;;;5012544;28;20499;-88
2021/10/31 01:38:33;;;;;;;12.95;10.20;;;11.90;99.90;;;;;;5012685;28;20049;-89
2021/10/31 01:41:10;;;;;;;10.75;9.65;;;11.80;99.90;;;;;;5009054;28;20053;-89
2021/10/31 01:44:07;;;;;;;11.23;9.88;;;11.70;99.90;;;;;;5012770;28;20046;-88
2021/10/31 01:46:43;;;;;;;13.05;9.82;;;11.80;99.90;;;;;;5012378;28;20509;-88
2021/10/31 01:49:23;;;;;;;13.35;10.00;;;11.90;99.90;;;;;;5013658;28;20050;-90
2021/10/31 01:52:01;;;;;;;10.63;9.20;;;11.90;99.90;;;;;;5014947;28;20123;-89
2021/10/31 01:54:43;;;;;;;12.05;10.18;;;11.90;99.90;;;;;;5016857;28;20056;-90
2021/10/31 01:57:16;;;;;;;11.00;9.90;;;11.90;99.90;;;;;;5016648;28;20065;-90
2021/10/31 01:59:47;;;;;;;10.18;9.13;;;11.90;99.90;;;;;;5016851;28;20058;-88
2021/10/31 02:02:17;;;;;;;11.63;9.18;;;11.80;99.90;;;;;;5016291;28;20085;-90
2021/10/31 02:04:49;;;;;;;10.65;9.43;;;11.80;99.90;;;;;;5016149;28;20049;-90
2021/10/31 02:07:19;;;;;;;10.73;9.40;;;11.70;99.90;;;;;;5016401;28;20046;-87
2021/10/31 02:09:49;;;;;;;11.38;9.40;;;11.70;99.90;;;;;;5016122;28;20050;-87
2021/10/31 02:12:18;;;;;;;11.95;9.45;;;11.70;99.90;;;;;;5016725;28;20052;-88
2021/10/31 02:14:46;;;;;;;12.07;9.45;;;11.80;99.90;;;;;;5015743;28;20483;-88
2021/10/31 02:17:16;;;;;;;10.40;9.27;;;11.70;99.90;;;;;;5016800;28;20057;-88
2021/10/31 02:19:46;;;;;;;12.65;9.40;;;11.70;99.90;;;;;;5015673;28;20132;-88
2021/10/31 02:22:25;;;;;;;10.65;9.32;;;11.60;99.90;;;;;;5015736;28;20487;-88
2021/10/31 02:24:52;;;;;;;12.52;9.57;;;11.50;99.90;;;;;;5015661;28;20046;-89
2021/10/31 02:27:23;;;;;;;13.80;9.23;;;11.40;99.90;;;;;;5016639;28;20046;-89
2021/10/31 02:29:53;;;;;;;10.23;9.10;;;11.40;99.90;;;;;;5016393;28;20050;-88
2021/10/31 02:32:23;;;;;;;10.02;8.80;;;11.50;99.90;;;;;;5015527;28;20147;-90
2021/10/31 02:34:50;;;;;;;10.70;9.23;;;11.50;99.90;;;;;;5015463;28;20049;-88
2021/10/31 02:37:17;;;;;;;10.30;9.02;;;11.50;99.90;;;;;;5015449;28;20326;-89
2021/10/31 02:39:43;;;;;;;11.68;8.90;;;11.60;99.90;;;;;;5015552;28;20046;-90
2021/10/31 02:42:10;;;;;;;11.02;8.85;;;11.60;99.90;;;;;;5015481;28;20046;-90
2021/10/31 02:44:37;;;;;;;10.13;9.07;;;11.50;99.90;;;;;;5016697;28;20402;-87
2021/10/31 02:47:07;;;;;;;9.70;8.52;;;11.50;99.90;;;;;;5035143;28;20076;-87
2021/10/31 02:49:36;;;;;;;10.00;8.98;;;11.30;99.90;;;;;;5020466;28;20406;-87
2021/10/31 02:52:52;;;;;;;12.30;9.30;;;11.30;99.90;;;;;;5016169;28;20076;-88
2021/10/31 02:55:39;;;;;;;13.80;9.00;;;11.10;99.90;;;;;;5016101;28;20046;-87
2021/10/31 02:58:19;;;;;;;12.52;9.27;;;10.90;99.90;;;;;;5014627;28;20076;-89
2021/10/31 03:00:47;;;;;;;10.45;8.73;;;10.90;99.90;;;;;;5015185;28;20081;-88
2021/10/31 03:03:14;;;;;;;10.57;9.48;;;11.00;99.90;;;;;;5014913;28;20054;-87
2021/10/31 03:05:47;;;;;;;10.52;9.10;;;11.10;99.90;;;;;;5014842;28;20137;-87
2021/10/31 03:08:14;;;;;;;9.93;8.50;;;11.20;99.90;;;;;;5014863;28;20406;-87
2021/10/31 03:10:48;;;;;;;12.32;9.35;;;11.10;99.90;;;;;;5029452;28;20084;-87
2021/10/31 03:13:15;;;;;;;11.23;8.77;;;11.00;99.90;;;;;;5035707;28;20109;-87
2021/10/31 03:15:42;;;;;;;11.40;8.50;;;11.00;99.90;;;;;;5018004;28;20057;-86
2021/10/31 03:18:09;;;;;;;10.63;9.07;;;11.00;99.90;;;;;;5018012;28;20045;-87
2021/10/31 03:20:35;;;;;;;11.95;8.75;;;11.00;99.90;;;;;;5018138;28;20548;-90
2021/10/31 03:23:02;;;;;;;10.57;8.20;;;11.00;99.90;;;;;;5017704;28;20492;-87
2021/10/31 03:25:29;;;;;;;8.77;7.85;;;11.00;99.90;;;;;;5017578;28;20045;-86
2021/10/31 03:27:56;;;;;;;8.85;7.90;;;11.00;99.90;;;;;;5035300;28;20065;-88
2021/10/31 03:30:23;;;;;;;11.32;9.07;;;11.00;99.90;;;;;;5017902;28;20136;-87
2021/10/31 03:32:49;;;;;;;9.95;8.15;;;11.00;99.90;;;;;;5017732;28;20049;-88
2021/10/31 03:35:16;;;;;;;14.43;8.10;;;11.00;99.90;;;;;;5017803;28;20052;-90
2021/10/31 03:37:43;;;;;;;9.32;8.20;;;11.10;99.90;;;;;;5017494;28;20081;-88
2021/10/31 03:40:11;;;;;;;11.20;8.43;;;11.20;99.90;;;;;;5017565;28;20485;-87
2021/10/31 03:42:38;;;;;;;8.73;7.80;;;11.20;99.90;;;;;;5034897;28;20516;-90
2021/10/31 03:45:06;;;;;;;9.27;8.35;;;11.10;99.90;;;;;;5017550;28;20073;-88
2021/10/31 03:47:35;;;;;;;11.35;8.38;;;11.10;99.90;;;;;;5017625;28;20084;-88
2021/10/31 03:50:02;;;;;;;11.68;8.85;;;11.10;99.90;;;;;;5034788;28;20053;-87
2021/10/31 03:52:28;;;;;;;11.10;8.65;;;11.00;99.90;;;;;;5017232;28;20045;-87
2021/10/31 03:54:55;;;;;;;8.05;7.25;;;10.90;99.90;;;;;;5017170;28;20076;-87
2021/10/31 03:57:22;;;;;;;9.98;7.88;;;10.70;99.90;;;;;;5034791;28;20593;-87
2021/10/31 03:59:48;;;;;;;8.35;7.45;;;10.50;99.90;;;;;;5034470;28;20096;-87
2021/10/31 04:02:15;;;;;;;9.32;7.40;;;10.40;99.90;;;;;;5018486;28;20045;-87
2021/10/31 04:04:42;;;;;;;9.70;7.65;;;10.20;99.90;;;;;;5031879;28;20152;-87
2021/10/31 04:07:09;;;;;;;8.68;7.78;;;10.10;99.90;;;;;;5019332;28;20054;-87
2021/10/31 04:09:36;;;;;;;10.35;8.15;;;9.90;99.90;;;;;;5013313;28;20176;-87
2021/10/31 04:12:03;;;;;;;12.98;10.27;;;9.80;99.90;;;;;;5013381;28;20056;-87
2021/10/31 04:14:30;;;;;;;13.20;11.80;;;9.70;99.90;;;;;;5012984;28;20501;-87
2021/10/31 04:16:57;;;;;;;13.40;11.23;;;9.50;99.90;;;;;;5013400;28;20053;-87
2021/10/31 04:19:24;;;;;;;12.40;9.05;;;9.40;99.90;;;;;;5014251;28;20048;-87
2021/10/31 04:21:50;;;;;;;17.88;10.18;;;9.40;99.90;;;;;;5014143;28;20065;-87
2021/10/31 04:24:17;;;;;;;12.02;10.45;;;9.20;99.90;;;;;;5013345;28;20457;-87
2021/10/31 04:26:44;;;;;;;13.93;9.73;;;9.20;99.90;;;;;;5013154;28;20409;-87
2021/10/31 04:29:11;;;;;;;12.73;9.98;;;9.10;99.90;;;;;;5014439;28;20125;-87
2021/10/31 04:31:37;;;;;;;12.85;10.07;;;9.00;99.90;;;;;;5013029;28;20054;-87
2021/10/31 04:34:04;;;;;;;13.90;12.45;;;8.90;99.90;;;;;;5013862;28;20042;-87
2021/10/31 04:36:31;;;;;;;15.98;12.43;;;8.80;99.90;;;;;;5012983;28;20125;-87
2021/10/31 04:38:58;;;;;;;15.13;11.57;;;8.70;99.90;;;;;;5014276;28;20049;-87
2021/10/31 04:41:27;;;;;;;14.55;12.00;;;8.60;99.90;;;;;;5013908;28;20045;-87
2021/10/31 04:43:54;;;;;;;15.00;11.38;;;8.60;99.90;;;;;;5013098;28;20085;-87
2021/10/31 04:46:21;;;;;;;16.70;11.57;;;8.60;99.90;;;;;;5012599;28;20046;-87
2021/10/31 04:48:48;;;;;;;25.52;18.90;;;8.60;99.90;;;;;;5012852;28;20053;-86
2021/10/31 04:51:14;;;;;;;17.02;13.85;;;8.50;99.90;;;;;;5012971;28;20307;-88
2021/10/31 04:53:42;;;;;;;19.50;14.95;;;8.50;99.90;;;;;;5012826;28;20128;-87
2021/10/31 04:56:09;;;;;;;14.85;12.75;;;8.50;99.90;;;;;;5012666;28;20050;-87
2021/10/31 04:58:36;;;;;;;18.10;12.95;;;8.50;99.90;;;;;;5013635;28;20502;-87
2021/10/31 05:01:03;;;;;;;12.30;10.52;;;8.50;99.90;;;;;;5013716;28;20408;-86
2021/10/31 05:03:31;;;;;;;18.65;12.27;;;8.60;99.90;;;;;;5013490;28;20054;-85
2021/10/31 05:05:59;;;;;;;15.88;11.85;;;8.50;99.90;;;;;;5013446;28;20477;-87
2021/10/31 05:08:26;;;;;;;16.23;11.48;;;8.50;99.90;;;;;;5012597;28;20081;-87
2021/10/31 05:10:53;;;;;;;15.48;13.10;;;8.50;99.90;;;;;;5012464;28;20054;-87
2021/10/31 05:13:20;;;;;;;15.57;11.07;;;8.50;99.90;;;;;;5013439;28;20078;-86
2021/10/31 05:15:47;;;;;;;11.82;10.13;;;8.40;99.90;;;;;;5013194;28;20104;-86
2021/10/31 05:18:14;;;;;;;13.98;10.63;;;8.30;99.90;;;;;;5013515;28;20053;-87
2021/10/31 05:20:41;;;;;;;14.75;11.50;;;8.30;99.90;;;;;;5018003;28;20073;-86
2021/10/31 05:23:07;;;;;;;15.55;11.20;;;8.30;99.90;;;;;;5026316;28;20125;-87
2021/10/31 05:25:34;;;;;;;16.88;12.02;;;8.20;99.90;;;;;;5013523;28;20380;-86
2021/10/31 05:28:01;;;;;;;17.60;12.80;;;8.20;99.90;;;;;;5012187;28;20486;-86
2021/10/31 05:30:27;;;;;;;17.48;13.23;;;8.10;99.90;;;;;;5011894;28;20050;-87
2021/10/31 05:32:54;;;;;;;27.48;14.90;;;8.10;99.90;;;;;;5012582;28;20050;-87
2021/10/31 05:35:21;;;;;;;24.45;13.40;;;8.20;99.90;;;;;;5012150;28;20054;-87
2021/10/31 05:37:55;;;;;;;19.35;12.57;;;8.20;99.90;;;;;;5013288;28;20046;-87
2021/10/31 05:40:23;;;;;;;14.07;11.45;;;8.10;99.90;;;;;;5013407;28;20107;-87
2021/10/31 05:42:50;;;;;;;19.38;12.75;;;8.10;99.90;;;;;;5013060;28;20068;-87
2021/10/31 05:45:17;;;;;;;20.88;15.00;;;8.10;99.90;;;;;;5012224;28;20050;-89
2021/10/31 05:47:44;;;;;;;17.63;13.48;;;8.20;99.90;;;;;;5012342;28;20069;-88
2021/10/31 05:50:14;;;;;;;15.90;12.40;;;8.50;99.90;;;;;;5013351;28;20137;-87
2021/10/31 05:52:42;;;;;;;18.73;12.70;;;8.70;99.90;;;;;;5012227;28;20045;-87
2021/10/31 05:55:12;;;;;;;14.93;11.68;;;8.70;99.90;;;;;;5011631;28;20056;-87
2021/10/31 05:57:39;;;;;;;14.73;11.30;;;8.80;99.90;;;;;;5010163;28;20052;-88
2021/10/31 06:00:09;;;;;;;15.35;11.18;;;8.80;99.90;;;;;;5011777;28;20042;-88
2021/10/31 06:02:35;;;;;;;13.88;11.35;;;8.70;99.90;;;;;;5011802;28;20085;-87
2021/10/31 06:05:04;;;;;;;11.75;9.93;;;8.70;99.90;;;;;;5012862;28;20065;-87
2021/10/31 06:07:31;;;;;;;15.63;10.23;;;8.60;99.90;;;;;;5011842;28;20471;-87
2021/10/31 06:09:58;;;;;;;14.10;10.30;;;8.50;99.90;;;;;;5011936;28;20054;-88
2021/10/31 06:12:25;;;;;;;12.57;9.63;;;8.40;99.90;;;;;;5012064;28;20085;-87
2021/10/31 06:14:52;;;;;;;16.77;9.98;;;8.30;99.90;;;;;;5012618;28;20089;-87
2021/10/31 06:17:19;;;;;;;12.75;10.05;;;8.20;99.90;;;;;;5011936;28;20084;-86
2021/10/31 06:19:46;;;;;;;12.45;10.77;;;8.20;99.90;;;;;;5012264;28;20079;-87
2021/10/31 06:22:12;;;;;;;19.55;14.57;;;8.10;99.90;;;;;;5011867;28;20057;-87
2021/10/31 06:24:40;;;;;;;33.08;20.60;;;8.10;99.90;;;;;;5011615;28;20053;-87
2021/10/31 06:27:06;;;;;;;24.95;17.92;;;8.10;99.90;;;;;;5011161;28;20053;-88
2021/10/31 06:29:33;;;;;;;20.83;14.43;;;8.00;99.90;;;;;;5011666;28;20056;-87
2021/10/31 06:32:00;;;;;;;16.40;11.57;;;8.00;99.90;;;;;;5012054;28;20054;-87
2021/10/31 06:34:27;;;;;;;16.98;11.43;;;8.00;99.90;;;;;;5012041;28;20494;-87
2021/10/31 06:36:54;;;;;;;12.07;9.85;;;8.00;99.90;;;;;;5012957;28;20053;-87
2021/10/31 06:39:21;;;;;;;12.32;10.05;;;8.10;99.90;;;;;;5020140;28;20060;-87
2021/10/31 06:41:47;;;;;;;15.60;10.18;;;8.00;99.90;;;;;;5027612;28;20060;-87
2021/10/31 06:44:14;;;;;;;12.40;10.43;;;8.10;99.90;;;;;;5015199;28;20046;-87
2021/10/31 06:46:41;;;;;;;13.65;9.20;;;8.10;99.90;;;;;;5015260;28;20525;-87
2021/10/31 06:49:10;;;;;;;13.77;10.18;;;8.10;99.90;;;;;;5016260;28;20049;-87
2021/10/31 06:51:40;;;;;;;12.13;9.73;;;8.10;99.90;;;;;;5014892;28;20049;-88
2021/10/31 06:54:07;;;;;;;11.77;9.75;;;8.10;99.90;;;;;;5014838;28;20430;-87
2021/10/31 06:56:34;;;;;;;12.38;9.60;;;8.20;99.90;;;;;;5015257;28;20046;-87
2021/10/31 06:59:01;;;;;;;13.02;9.88;;;8.20;99.90;;;;;;5015461;28;20429;-87
2021/10/31 07:01:28;;;;;;;12.30;9.45;;;8.20;99.90;;;;;;5014943;28;20578;-87
2021/10/31 07:03:55;;;;;;;15.48;9.95;;;8.20;99.90;;;;;;5014298;28;20067;-88
2021/10/31 07:06:27;;;;;;;11.68;9.88;;;8.20;99.90;;;;;;5014360;28;20050;-87
2021/10/31 07:08:55;;;;;;;12.45;9.57;;;8.20;99.90;;;;;;5015123;28;20050;-87
2021/10/31 07:11:22;;;;;;;13.38;11.13;;;8.30;99.90;;;;;;5013871;28;20045;-87
2021/10/31 07:13:49;;;;;;;11.98;10.10;;;8.20;99.90;;;;;;5014699;28;20046;-86
2021/10/31 07:16:15;;;;;;;15.98;11.52;;;8.20;99.90;;;;;;5014076;28;20137;-87
2021/10/31 07:18:42;;;;;;;19.23;11.00;;;8.30;99.90;;;;;;5013852;28;20084;-87
2021/10/31 07:21:09;;;;;;;26.75;12.85;;;8.10;99.90;;;;;;5014502;28;20516;-87
2021/10/31 07:23:36;;;;;;;18.33;10.80;;;8.20;99.90;;;;;;5015328;28;20138;-87
2021/10/31 07:26:07;;;;;;;24.55;13.98;;;8.20;99.90;;;;;;5014308;28;20049;-87
2021/10/31 07:28:35;;;;;;;20.83;11.95;;;8.30;99.90;;;;;;5014477;28;20470;-86
2021/10/31 07:31:03;;;;;;;17.25;12.23;;;8.30;99.90;;;;;;5014325;28;20132;-87
2021/10/31 07:33:30;;;;;;;16.73;11.05;;;8.40;99.90;;;;;;5014195;28;20468;-87
2021/10/31 07:35:57;;;;;;;19.08;10.48;;;8.40;99.90;;;;;;5014339;28;20050;-87
2021/10/31 07:38:23;;;;;;;19.17;10.23;;;8.50;99.90;;;;;;5015919;28;20362;-87
2021/10/31 07:40:51;;;;;;;12.00;9.73;;;8.60;99.90;;;;;;5016538;28;20140;-86
2021/10/31 07:43:18;;;;;;;14.38;10.43;;;8.60;99.90;;;;;;5015258;28;20113;-87
2021/10/31 07:45:45;;;;;;;10.85;9.60;;;8.70;99.90;;;;;;5016406;28;20065;-87
2021/10/31 07:48:12;;;;;;;13.75;9.60;;;8.80;99.90;;;;;;5014995;28;20458;-86
2021/10/31 07:50:39;;;;;;;12.25;9.40;;;8.90;99.90;;;;;;5014309;28;20125;-87
2021/10/31 07:53:10;;;;;;;11.30;9.57;;;9.00;99.90;;;;;;5016118;28;20053;-87
2021/10/31 07:55:38;;;;;;;57.15;13.18;;;9.00;99.90;;;;;;5015418;28;20590;-87
2021/10/31 07:58:06;;;;;;;71.72;14.00;;;9.20;99.90;;;;;;5022367;28;20136;-86
2021/10/31 08:00:35;;;;;;;84.47;13.35;;;9.50;99.90;;;;;;5017735;28;20050;-87
2021/10/31 08:03:03;;;;;;;42.97;10.75;;;9.70;99.90;;;;;;5016881;28;20052;-87
2021/10/31 08:05:30;;;;;;;50.40;11.63;;;9.90;99.90;;;;;;5015652;28;20107;-87
2021/10/31 08:07:58;;;;;;;21.20;8.60;;;10.00;99.90;;;;;;5014193;28;20555;-87
2021/10/31 08:10:26;;;;;;;23.17;8.63;;;10.20;99.90;;;;;;5015004;28;20054;-87
2021/10/31 08:12:52;;;;;;;18.02;8.68;;;10.30;99.90;;;;;;5014276;28;20141;-87
2021/10/31 08:15:19;;;;;;;10.85;7.60;;;10.40;99.90;;;;;;5014832;28;20129;-86
2021/10/31 08:17:46;;;;;;;14.23;8.55;;;10.50;99.90;;;;;;5013662;28;20451;-87
2021/10/31 08:20:13;;;;;;;12.07;8.38;;;10.70;99.90;;;;;;5013773;28;20045;-87
2021/10/31 08:22:40;;;;;;;12.38;8.45;;;10.80;99.90;;;;;;5013291;28;20046;-87
2021/10/31 08:25:07;;;;;;;13.65;7.50;;;11.00;99.90;;;;;;5013504;28;20136;-87
2021/10/31 08:27:34;;;;;;;10.98;6.65;;;11.30;99.90;;;;;;5013811;28;20132;-88
2021/10/31 08:30:02;;;;;;;9.02;6.68;;;11.40;99.90;;;;;;5013521;28;20050;-87
2021/10/31 08:32:32;;;;;;;16.15;7.43;;;11.80;99.90;;;;;;5014520;28;20482;-87
2021/10/31 08:34:59;;;;;;;12.35;7.35;;;12.40;99.90;;;;;;5014092;28;20137;-87
2021/10/31 08:37:25;;;;;;;23.15;8.32;;;13.10;99.90;;;;;;5015432;28;20505;-87
2021/10/31 08:39:52;;;;;;;8.50;5.70;;;13.30;99.90;;;;;;5014699;28;20050;-87
2021/10/31 08:42:19;;;;;;;97.30;11.07;;;13.60;99.90;;;;;;5014595;28;20133;-87
2021/10/31 08:44:46;;;;;;;26.60;8.20;;;13.80;99.90;;;;;;5016748;28;20054;-87
2021/10/31 08:47:13;;;;;;;13.38;6.82;;;14.00;99.90;;;;;;5014644;28;20100;-87
2021/10/31 08:49:40;;;;;;;14.18;6.28;;;14.10;99.90;;;;;;5015419;28;20049;-88
2021/10/31 08:52:07;;;;;;;9.40;6.53;;;14.10;99.90;;;;;;5014991;28;20058;-87
2021/10/31 08:54:38;;;;;;;10.73;6.30;;;14.30;99.90;;;;;;5014161;28;20060;-85
2021/10/31 08:57:06;;;;;;;10.68;5.05;;;14.50;99.90;;;;;;5015480;28;20054;-85
2021/10/31 08:59:36;;;;;;;7.80;5.10;;;14.90;99.90;;;;;;5014174;28;20056;-86
2021/10/31 09:02:03;;;;;;;6.45;4.85;;;15.10;99.90;;;;;;5014669;28;20064;-85
2021/10/31 09:04:31;;;;;;;10.65;5.00;;;15.50;99.90;;;;;;5014486;28;20050;-84
2021/10/31 09:06:57;;;;;;;7.07;4.05;;;16.00;99.90;;;;;;5014320;28;20538;-85
2021/10/31 09:09:24;;;;;;;4.55;3.95;;;16.20;99.90;;;;;;5014936;28;20068;-85
2021/10/31 09:11:52;;;;;;;31.52;5.93;;;16.40;99.90;;;;;;5015372;28;20045;-85
2021/10/31 09:14:19;;;;;;;12.30;4.32;;;16.40;99.90;;;;;;5024544;28;20049;-85
2021/10/31 09:16:48;;;;;;;4.28;3.70;;;16.90;99.90;;;;;;5016956;28;20049;-85
2021/10/31 09:19:17;;;;;;;5.72;3.58;;;16.90;99.90;;;;;;5013967;28;20058;-86
2021/10/31 09:21:44;;;;;;;8.15;4.15;;;17.30;99.90;;;;;;5012607;28;20050;-86
2021/10/31 09:24:12;;;;;;;4.72;3.53;;;17.50;99.90;;;;;;5013170;28;20050;-86
2021/10/31 09:26:38;;;;;;;7.50;3.78;;;17.10;99.90;;;;;;5013258;28;20140;-86
2021/10/31 09:29:06;;;;;;;20.67;11.65;;;17.70;99.90;;;;;;5013647;28;20104;-86
2021/10/31 09:31:33;;;;;;;4.05;3.67;;;17.60;99.90;;;;;;5014013;28;20513;-86
2021/10/31 09:34:00;;;;;;;12.10;6.88;;;17.80;99.90;;;;;;5013563;28;20049;-85
2021/10/31 09:36:28;;;;;;;15.20;9.80;;;17.70;99.90;;;;;;5013148;28;20052;-86
2021/10/31 09:38:56;;;;;;;111.80;71.07;;;17.60;99.90;;;;;;5013998;28;20153;-87
2021/10/31 09:41:24;;;;;;;30.63;20.63;;;16.50;99.90;;;;;;5013311;28;20478;-86
2021/10/31 09:43:59;;;;;;;3.90;3.53;;;16.20;99.90;;;;;;5012733;28;20133;-85
2021/10/31 09:46:26;;;;;;;51.95;39.25;;;16.70;99.90;;;;;;5012959;28;20053;-86
2021/10/31 09:48:53;;;;;;;12.43;11.10;;;17.70;99.90;;;;;;5014237;28;20060;-85
2021/10/31 09:51:23;;;;;;;12.00;10.23;;;18.70;99.90;;;;;;5014439;28;20141;-86
2021/10/31 09:53:50;;;;;;;74.72;36.70;;;20.20;99.90;;;;;;5013513;28;20064;-88
2021/10/31 09:56:17;;;;;;;36.03;21.75;;;20.50;99.90;;;;;;5014639;28;20057;-86
2021/10/31 09:58:44;;;;;;;4.97;4.20;;;22.00;99.90;;;;;;5014166;28;20050;-86
2021/10/31 10:01:39;;;;;;;7.60;4.95;;;22.70;94.30;;;;;;5013390;28;20133;-85
2021/10/31 10:04:06;;;;;;;123.53;70.07;;;23.30;93.90;;;;;;5013090;28;20073;-86
2021/10/31 10:06:33;;;;;;;42.95;26.10;;;22.30;92.70;;;;;;5013757;28;20056;-86
2021/10/31 10:09:10;;;;;;;102.90;61.25;;;21.40;95.80;;;;;;5013382;28;20121;-87
2021/10/31 10:11:42;;;;;;;68.85;42.75;;;21.10;97.50;;;;;;5033847;28;20132;-86
2021/10/31 10:14:12;;;;;;;16.80;15.10;;;21.00;98.20;;;;;;5020166;28;20075;-86
2021/10/31 10:16:41;;;;;;;7.72;6.95;;;20.70;97.40;;;;;;5020685;28;20045;-87
2021/10/31 10:19:21;;;;;;;22.70;19.23;;;20.90;97.30;;;;;;5019624;28;20073;-86
2021/10/31 10:21:53;;;;;;;13.13;11.50;;;20.90;98.30;;;;;;5020368;28;20049;-86
2021/10/31 10:24:23;;;;;;;4.63;4.32;;;21.10;97.60;;;;;;5019724;28;20060;-86
2021/10/31 10:26:53;;;;;;;4.80;4.40;;;21.30;97.00;;;;;;5021980;28;20049;-84
2021/10/31 10:29:24;;;;;;;8.68;7.53;;;21.10;98.60;;;;;;5027767;28;20049;-86
2021/10/31 10:31:53;;;;;;;3.80;3.45;;;20.70;98.20;;;;;;5031056;28;20144;-87
2021/10/31 10:34:56;;;;;;;8.32;4.88;;;21.30;95.90;;;;;;5019155;28;20080;-86
2021/10/31 10:37:28;;;;;;;8.15;6.85;;;22.00;94.90;;;;;;5037343;28;20050;-87
2021/10/31 10:39:58;;;;;;;3.50;3.20;;;23.30;93.10;;;;;;5020927;28;20053;-86
2021/10/31 10:42:34;;;;;;;11.60;9.10;;;24.50;90.40;;;;;;5037611;28;20059;-86
2021/10/31 10:45:04;;;;;;;4.00;3.60;;;26.70;81.20;;;;;;5020600;28;20144;-86
2021/10/31 10:47:38;;;;;;;5.65;3.30;;;26.70;78.80;;;;;;5021870;28;20120;-86
2021/10/31 10:50:05;;;;;;;2.88;2.42;;;27.60;76.00;;;;;;5021610;28;20055;-88
2021/10/31 10:52:40;;;;;;;17.33;9.43;;;29.30;69.30;;;;;;5020962;28;20140;-87
2021/10/31 10:55:21;;;;;;;3.80;3.50;;;30.20;64.90;;;;;;5021614;28;20601;-87
2021/10/31 10:57:54;;;;;;;9.68;6.72;;;27.90;64.90;;;;;;5020577;28;20060;-86
2021/10/31 11:00:26;;;;;;;11.73;8.17;;;26.00;68.80;;;;;;5037187;28;20137;-87
2021/10/31 11:03:02;;;;;;;6.50;3.90;;;24.70;74.00;;;;;;5037421;28;20050;-87
2021/10/31 11:05:50;;;;;;;3.60;3.30;;;25.40;73.50;;;;;;5021166;28;20060;-86
2021/10/31 11:08:20;;;;;;;3.17;2.97;;;26.50;71.20;;;;;;5036262;28;20052;-85
2021/10/31 11:10:50;;;;;;;2.97;2.78;;;27.90;68.60;;;;;;5019305;28;20061;-87
2021/10/31 11:13:17;;;;;;;4.45;3.05;;;28.00;67.50;;;;;;5018714;28;20045;-87
2021/10/31 11:15:43;;;;;;;5.20;3.20;;;28.50;66.60;;;;;;5037161;28;20057;-88
2021/10/31 11:18:13;;;;;;;5.57;2.75;;;28.80;64.60;;;;;;5037468;28;20107;-87
2021/10/31 11:20:43;;;;;;;2.72;2.63;;;29.70;64.00;;;;;;5022541;28;20052;-86
2021/10/31 11:23:12;;;;;;;3.78;2.97;;;30.60;61.00;;;;;;5020356;28;20056;-88
2021/10/31 11:25:41;;;;;;;3.47;2.90;;;30.90;60.00;;;;;;5021947;28;20064;-87
2021/10/31 11:28:12;;;;;;;3.22;3.05;;;31.20;58.20;;;;;;5022657;28;20096;-89
2021/10/31 11:30:40;;;;;;;2.70;2.60;;;30.70;58.20;;;;;;5022473;28;20091;-88
2021/10/31 11:33:09;;;;;;;4.38;3.03;;;30.90;58.70;;;;;;5023467;28;20113;-88
2021/10/31 11:35:36;;;;;;;3.67;3.38;;;30.60;57.70;;;;;;5039247;28;20159;-87
2021/10/31 11:38:11;;;;;;;3.38;3.10;;;29.60;58.50;;;;;;5020891;28;20136;-87
2021/10/31 11:41:00;;;;;;;3.42;3.13;;;29.80;59.50;;;;;;5020109;28;20045;-86
2021/10/31 11:43:34;;;;;;;3.17;2.97;;;28.80;61.40;;;;;;5021206;28;20053;-87
2021/10/31 11:46:02;;;;;;;4.70;3.03;;;29.90;61.20;;;;;;5035018;28;20046;-88
2021/10/31 11:48:39;;;;;;;3.92;3.03;;;29.50;59.70;;;;;;5027704;28;20057;-87
2021/10/31 11:51:10;;;;;;;3.20;3.00;;;29.40;59.40;;;;;;5018619;28;20053;-85
2021/10/31 11:53:39;;;;;;;4.68;3.67;;;29.20;61.00;;;;;;5020730;28;20049;-87
2021/10/31 11:56:23;;;;;;;3.25;3.00;;;28.80;58.90;;;;;;5021660;28;20140;-89
2021/10/31 11:58:54;;;;;;;2.65;2.55;;;29.40;59.30;;;;;;5021808;28;20057;-88
2021/10/31 12:01:43;;;;;;;2.75;2.55;;;29.10;59.50;;;;;;5022564;28;20049;-87
2021/10/31 12:04:33;;;;;;;3.20;3.00;;;28.80;60.50;;;;;;5022154;28;20423;-87
2021/10/31 12:07:10;;;;;;;4.20;3.00;;;28.10;61.30;;;;;;5034465;28;20617;-89
2021/10/31 12:09:38;;;;;;;3.10;2.90;;;28.00;62.10;;;;;;5017805;28;20053;-86
2021/10/31 12:12:15;;;;;;;2.75;2.55;;;27.30;63.10;;;;;;5018238;28;20050;-86
2021/10/31 12:14:52;;;;;;;2.72;2.63;;;26.80;65.20;;;;;;5017042;28;20112;-88
2021/10/31 12:17:20;;;;;;;2.90;2.70;;;26.20;65.70;;;;;;5017039;28;20048;-89
2021/10/31 12:19:52;;;;;;;2.88;2.70;;;25.60;66.70;;;;;;5017024;28;20057;-87
2021/10/31 12:22:31;;;;;;;3.20;3.00;;;25.30;67.10;;;;;;5017152;28;20413;-88
2021/10/31 12:25:08;;;;;;;3.10;2.78;;;25.00;67.50;;;;;;5016631;28;20049;-86
2021/10/31 12:27:43;;;;;;;2.80;2.60;;;24.80;68.50;;;;;;5034106;28;20448;-87
2021/10/31 12:30:25;;;;;;;2.50;2.30;;;24.70;67.90;;;;;;5016998;28;20048;-89
2021/10/31 12:33:04;;;;;;;2.67;2.38;;;24.50;68.80;;;;;;5014896;28;20049;-87
2021/10/31 12:35:40;;;;;;;2.60;2.40;;;24.60;67.40;;;;;;5016095;28;20049;-89
2021/10/31 12:38:16;;;;;;;3.15;2.50;;;24.40;67.10;;;;;;5016825;28;20046;-87
2021/10/31 12:41:03;;;;;;;2.63;2.25;;;24.00;69.40;;;;;;5016584;28;20418;-87
2021/10/31 12:43:39;;;;;;;2.03;1.92;;;24.20;69.80;;;;;;5033673;28;20053;-88
2021/10/31 12:46:23;;;;;;;4.10;2.17;;;24.20;68.90;;;;;;5033533;28;20046;-88
2021/10/31 12:49:00;;;;;;;2.33;2.13;;;24.10;69.70;;;;;;5016621;28;20061;-87
2021/10/31 12:51:42;;;;;;;2.75;2.35;;;24.10;69.50;;;;;;5016400;28;20482;-86
2021/10/31 12:54:19;;;;;;;3.55;2.00;;;24.10;69.70;;;;;;5033423;28;20050;-86
2021/10/31 12:56:47;;;;;;;2.30;2.20;;;24.20;70.10;;;;;;5033567;28;20045;-86